Time;durP1;ratioP1;P1;durP2;ratioP2;P2;SDS_P1;SDS_P2;PMS_P1;PMS_P2;Temp;Humidity;BMP_temperature;BMP_pressure;BME280_temperature;BME280_humidity;BME280_pressure;Samples;Min_cycle;Max_cycle;Signal;HPM_P1;HPM_P2
2022/12/01 00:02:10;;;;;;;22.50;20.70;;;;;;;21.89;34.38;95248.56;6222159;28;103920;-65
2022/12/01 00:05:14;;;;;;;22.80;20.97;;;;;;;21.95;34.89;95255.38;6227373;27;103554;-65
2022/12/01 00:08:18;;;;;;;22.60;20.70;;;;;;;21.96;34.67;95248.94;6237723;27;103634;-67
2022/12/01 00:11:20;;;;;;;21.93;20.13;;;;;;;21.96;34.65;95256.16;6237195;27;103823;-65
2022/12/01 00:14:25;;;;;;;22.10;20.20;;;;;;;21.96;34.41;95256.94;6232240;27;103956;-67
2022/12/01 00:17:29;;;;;;;21.53;19.63;;;;;;;21.93;34.44;95248.75;6218395;28;104277;-65
2022/12/01 00:20:33;;;;;;;22.40;20.30;;;;;;;21.93;34.94;95252.22;6237297;28;104322;-66
2022/12/01 00:23:36;;;;;;;21.63;19.87;;;;;;;21.94;34.87;95245.00;6236851;28;103806;-65
2022/12/01 00:26:40;;;;;;;21.43;19.60;;;;;;;21.94;34.80;95253.78;6226056;27;105206;-65
2022/12/01 00:29:45;;;;;;;22.63;20.73;;;;;;;21.94;34.98;95248.47;6236071;27;103724;-65
2022/12/01 00:32:49;;;;;;;20.00;18.30;;;;;;;21.94;34.20;95250.34;6236707;27;103331;-65
2022/12/01 00:35:58;;;;;;;19.93;18.33;;;;;;;21.94;34.57;95248.47;6236938;27;103535;-65
2022/12/01 00:39:01;;;;;;;21.00;19.20;;;;;;;21.89;34.60;95237.91;6225807;27;104034;-65
2022/12/01 00:42:04;;;;;;;21.23;19.53;;;;;;;21.90;34.57;95236.03;6236577;28;103962;-66
2022/12/01 00:45:16;;;;;;;19.70;18.10;;;;;;;21.94;34.77;95237.81;6236303;28;104971;-65
2022/12/01 00:48:19;;;;;;;18.57;17.07;;;;;;;21.98;34.73;95240.66;6236555;27;104061;-66
2022/12/01 00:51:23;;;;;;;18.97;17.47;;;;;;;21.96;34.50;95248.16;6226791;27;104254;-65
2022/12/01 00:54:26;;;;;;;18.30;16.80;;;;;;;21.93;34.66;95241.56;6235826;27;105593;-65
2022/12/01 00:57:29;;;;;;;16.70;15.20;;;;;;;21.96;34.39;95245.50;6236446;27;103809;-65
2022/12/01 01:00:37;;;;;;;17.70;16.30;;;;;;;21.85;34.50;95226.28;6231820;27;103970;-65
2022/12/01 01:03:40;;;;;;;17.40;16.00;;;;;;;21.95;34.75;95241.25;6230395;28;106687;-65
2022/12/01 01:06:43;;;;;;;16.40;15.10;;;;;;;21.90;34.47;95231.50;6236484;27;103817;-65
2022/12/01 01:09:46;;;;;;;16.97;15.60;;;;;;;21.93;34.48;95236.22;6236119;27;103779;-65
2022/12/01 01:12:50;;;;;;;17.27;15.80;;;;;;;21.93;34.71;95238.88;6225216;27;103772;-65
2022/12/01 01:15:59;;;;;;;15.13;13.87;;;;;;;21.94;34.43;95240.47;6234941;27;103878;-65
2022/12/01 01:19:02;;;;;;;15.37;14.10;;;;;;;21.91;34.32;95233.06;6236216;27;104232;-65
2022/12/01 01:22:05;;;;;;;15.07;13.83;;;;;;;21.91;34.12;95233.06;6236140;27;103712;-65
2022/12/01 01:25:09;;;;;;;14.13;13.03;;;;;;;21.92;34.45;95228.53;6223931;27;103862;-66
2022/12/01 01:28:12;;;;;;;14.37;13.17;;;;;;;21.84;34.45;95205.25;6235978;28;103534;-65
2022/12/01 01:31:19;;;;;;;14.27;13.03;;;;;;;21.94;34.53;95229.81;6235459;27;103867;-65
2022/12/01 01:34:22;;;;;;;13.10;12.00;;;;;;;21.94;34.08;95232.47;6235710;27;103820;-65
2022/12/01 01:37:25;;;;;;;13.50;12.40;;;;;;;21.94;34.13;95229.81;6224804;27;105351;-65
2022/12/01 01:40:28;;;;;;;12.37;11.37;;;;;;;21.95;34.37;95211.94;6236339;27;103691;-65
2022/12/01 01:43:53;;;;;;;11.83;10.83;;;;;;;21.93;34.56;95209.59;6235619;28;104842;-65
2022/12/01 01:46:58;;;;;;;12.50;11.43;;;;;;;21.94;34.53;95205.81;6225565;28;106911;-65
2022/12/01 01:50:05;;;;;;;12.07;11.07;;;;;;;21.90;34.55;95201.41;6231316;27;103934;-66
2022/12/01 01:53:12;;;;;;;10.97;10.07;;;;;;;21.94;34.57;95208.50;6235651;27;103793;-65
2022/12/01 01:56:15;;;;;;;10.23;9.43;;;;;;;21.91;34.56;95198.44;6236126;27;105043;-66
2022/12/01 01:59:24;;;;;;;11.00;10.10;;;;;;;21.94;34.25;95203.16;6224379;27;103997;-65
2022/12/01 02:02:28;;;;;;;10.90;9.90;;;;;;;21.95;34.14;95210.06;6235634;27;103929;-68
2022/12/01 02:05:34;;;;;;;10.17;9.37;;;;;;;21.96;34.09;95206.31;6234532;27;104027;-65
2022/12/01 02:08:37;;;;;;;10.60;9.77;;;;;;;21.95;34.18;95194.06;6235224;27;103872;-65
2022/12/01 02:12:05;;;;;;;9.93;9.03;;;;;;;21.95;34.34;95198.63;6224677;27;104634;-67
2022/12/01 02:15:23;;;;;;;9.23;8.53;;;;;;;21.95;34.29;95187.97;6218840;28;103907;-68
2022/12/01 02:18:37;;;;;;;9.07;8.37;;;;;;;21.94;34.08;95192.50;6235335;27;103863;-69
2022/12/01 02:21:58;;;;;;;9.77;8.97;;;;;;;21.86;34.08;95185.25;6226876;28;104601;-68
2022/12/01 02:25:23;;;;;;;8.70;8.00;;;;;;;21.85;34.51;95173.00;6230335;28;103737;-68
2022/12/01 02:28:46;;;;;;;9.07;8.37;;;;;;;21.94;34.46;95189.06;6234449;27;103692;-67
2022/12/01 02:31:59;;;;;;;8.83;8.13;;;;;;;21.97;34.02;95186.56;6233258;28;103911;-67
2022/12/01 02:35:13;;;;;;;8.70;8.00;;;;;;;21.94;34.18;95186.38;6206453;28;104053;-68
2022/12/01 02:38:24;;;;;;;8.93;8.23;;;;;;;21.94;34.52;95186.38;6234376;27;103684;-68
2022/12/01 02:41:32;;;;;;;8.33;7.63;;;;;;;21.92;33.96;95186.69;6235280;28;103686;-68
2022/12/01 02:44:42;;;;;;;8.00;7.40;;;;;;;21.93;34.10;95177.59;6229663;28;104224;-68
2022/12/01 02:47:49;;;;;;;7.83;7.20;;;;;;;21.95;34.05;95180.75;6232873;28;103322;-68
2022/12/01 02:50:55;;;;;;;8.50;7.80;;;;;;;21.95;34.46;95177.31;6234271;28;104307;-69
2022/12/01 02:54:00;;;;;;;7.70;7.10;;;;;;;21.94;34.34;95184.50;6234730;28;104991;-68
2022/12/01 02:57:04;;;;;;;6.77;6.27;;;;;;;21.94;33.87;95176.50;6224754;27;106621;-69
2022/12/01 03:00:12;;;;;;;7.43;6.83;;;;;;;21.94;34.09;95181.84;6233829;28;103484;-68
2022/12/01 03:03:33;;;;;;;7.63;7.03;;;;;;;21.94;33.93;95178.41;6234836;27;103724;-69
2022/12/01 03:06:48;;;;;;;7.60;6.93;;;;;;;21.95;34.46;95180.75;6233750;27;103640;-68
2022/12/01 03:10:04;;;;;;;8.20;7.50;;;;;;;21.94;34.02;95181.06;6223215;27;103931;-68
2022/12/01 03:13:16;;;;;;;8.07;7.47;;;;;;;21.94;34.51;95176.50;6234071;28;103693;-69
2022/12/01 03:16:27;;;;;;;7.63;6.93;;;;;;;21.89;34.29;95175.84;6235993;27;103913;-69
2022/12/01 03:19:37;;;;;;;6.73;6.23;;;;;;;21.94;33.79;95178.41;6228602;27;104047;-69
2022/12/01 03:22:44;;;;;;;6.83;6.30;;;;;;;21.94;34.35;95186.38;6237315;27;103898;-68
2022/12/01 03:25:51;;;;;;;7.27;6.67;;;;;;;21.91;34.33;95179.78;6238080;28;104286;-68
2022/12/01 03:29:03;;;;;;;7.13;6.53;;;;;;;21.92;34.47;95181.38;6237098;27;103741;-69
2022/12/01 03:32:10;;;;;;;6.20;5.70;;;;;;;21.94;34.39;95183.72;6227505;27;104590;-68
2022/12/01 03:35:19;;;;;;;6.50;6.00;;;;;;;21.95;34.25;95185.28;6239370;28;103544;-69
2022/12/01 03:38:25;;;;;;;6.57;6.03;;;;;;;21.95;34.14;95187.97;6238934;28;105863;-68
2022/12/01 03:41:43;;;;;;;6.83;6.23;;;;;;;21.94;33.75;95176.50;6238511;28;103896;-68
2022/12/01 03:44:50;;;;;;;6.50;6.00;;;;;;;21.93;34.17;95177.59;6231652;27;104316;-69
2022/12/01 03:47:53;;;;;;;6.00;5.50;;;;;;;21.89;33.99;95173.97;6238700;28;106430;-68
2022/12/01 03:51:05;;;;;;;6.23;5.73;;;;;;;21.92;33.92;95175.25;6238445;27;103904;-68
2022/12/01 03:54:15;;;;;;;6.17;5.67;;;;;;;21.92;34.41;95183.25;6227044;27;103972;-68
2022/12/01 03:57:25;;;;;;;5.97;5.57;;;;;;;21.93;34.05;95185.59;6238141;27;103891;-67
2022/12/01 04:00:30;;;;;;;5.37;4.97;;;;;;;21.91;33.88;95174.47;6236573;28;104254;-69
2022/12/01 04:03:33;;;;;;;5.40;5.00;;;;;;;21.91;34.37;95177.13;6237532;28;103797;-69
2022/12/01 04:06:40;;;;;;;5.20;4.80;;;;;;;21.93;33.92;95174.94;6227836;27;105840;-67
2022/12/01 04:09:43;;;;;;;5.30;4.80;;;;;;;21.94;34.23;95165.84;6237533;27;103777;-66
2022/12/01 04:12:46;;;;;;;5.00;4.60;;;;;;;21.94;34.09;95159.75;6237887;27;106078;-67
2022/12/01 04:15:50;;;;;;;4.60;4.20;;;;;;;21.99;34.09;95175.59;6237852;27;103754;-68
2022/12/01 04:18:53;;;;;;;4.23;3.93;;;;;;;21.99;34.02;95187.06;6229859;27;104687;-69
2022/12/01 04:21:58;;;;;;;4.57;4.10;;;;;;;22.03;33.95;95185.38;6238553;28;106199;-69
2022/12/01 04:25:01;;;;;;;5.43;4.10;;;;;;;22.00;34.76;95183.28;6235074;27;103946;-69
2022/12/01 04:28:04;;;;;;;4.93;4.37;;;;;;;21.97;34.70;95175.13;6229500;27;103978;-69
2022/12/01 04:31:07;;;;;;;4.73;4.33;;;;;;;22.01;34.42;95182.25;6215872;27;103867;-70
2022/12/01 04:34:11;;;;;;;5.50;4.30;;;;;;;22.02;34.66;95189.13;6238355;27;104000;-69
2022/12/01 04:37:15;;;;;;;5.30;4.43;;;;;;;22.03;34.63;95189.94;6227601;27;106296;-70
2022/12/01 04:40:20;;;;;;;4.77;3.83;;;;;;;22.01;34.33;95192.91;6207126;28;104378;-69
2022/12/01 04:43:23;;;;;;;3.90;3.60;;;;;;;22.00;34.89;95195.84;6227830;27;103927;-67
2022/12/01 04:46:26;;;;;;;3.90;3.60;;;;;;;21.96;34.32;95190.31;6237580;27;104039;-67
2022/12/01 04:49:30;;;;;;;5.30;3.47;;;;;;;21.93;34.82;95188.25;6237452;27;103829;-64
2022/12/01 04:52:36;;;;;;;4.43;3.30;;;;;;;21.95;34.29;95190.63;6226247;27;103907;-66
2022/12/01 04:55:39;;;;;;;2.90;1.93;;;;;;;21.43;33.46;95193.56;6231303;27;103953;-64
2022/12/01 04:58:43;;;;;;;2.27;1.20;;;;;;;21.02;34.41;95203.41;6234091;28;103534;-65
2022/12/01 05:01:46;;;;;;;1.80;0.93;;;;;;;20.92;34.34;95194.50;6234976;27;104014;-64
2022/12/01 05:04:50;;;;;;;1.10;0.67;;;;;;;19.15;33.32;95189.91;6218214;27;103876;-64
2022/12/01 05:07:54;;;;;;;0.67;0.60;;;;;;;19.19;35.13;95187.50;6225504;28;103956;-64
2022/12/01 05:10:58;;;;;;;0.80;0.80;;;;;;;20.22;34.10;95181.31;6234873;28;104862;-64
2022/12/01 05:14:01;;;;;;;1.37;0.73;;;;;;;20.77;33.31;95186.00;6229657;27;103826;-66
2022/12/01 05:17:04;;;;;;;1.27;0.90;;;;;;;21.14;33.42;95187.75;6228645;28;103740;-64
2022/12/01 05:23:40;;;;;;;3.83;1.50;;;;;;;21.62;33.68;95195.31;6234895;27;104222;-67
2022/12/01 05:26:44;;;;;;;5.57;1.90;;;;;;;21.67;33.62;95197.84;6222874;27;104026;-67
2022/12/01 05:29:47;;;;;;;2.13;1.80;;;;;;;21.73;33.96;95196.69;6234537;28;103873;-67
2022/12/01 05:32:51;;;;;;;2.33;2.13;;;;;;;21.79;33.49;95195.47;6235240;27;104008;-66
2022/12/01 05:35:54;;;;;;;2.73;2.50;;;;;;;21.70;33.40;95176.75;6234568;27;103957;-67
2022/12/01 05:38:59;;;;;;;2.87;2.67;;;;;;;21.80;33.66;95186.38;6222886;27;103777;-66
2022/12/01 05:42:02;;;;;;;4.80;3.53;;;;;;;21.85;33.70;95189.00;6233688;28;107226;-67
2022/12/01 05:45:06;;;;;;;3.77;3.00;;;;;;;21.86;33.37;95200.44;6233784;28;103557;-67
2022/12/01 05:48:09;;;;;;;4.83;3.60;;;;;;;21.88;33.45;95191.06;6230223;27;103655;-66
2022/12/01 05:51:14;;;;;;;4.90;3.53;;;;;;;21.89;33.93;95200.63;6228759;27;104060;-67
2022/12/01 05:54:18;;;;;;;4.90;3.93;;;;;;;21.89;33.64;95199.84;6235967;27;103740;-66
2022/12/01 05:57:21;;;;;;;4.40;3.83;;;;;;;21.91;33.77;95201.09;6234978;27;104136;-66
2022/12/01 06:00:24;;;;;;;4.30;3.90;;;;;;;21.91;33.72;95209.09;6225485;28;105421;-68
2022/12/01 06:03:27;;;;;;;4.17;3.77;;;;;;;21.90;33.44;95210.19;6236103;28;106183;-67
2022/12/01 06:06:30;;;;;;;4.53;4.13;;;;;;;21.91;34.01;95206.44;6235571;28;103844;-67
2022/12/01 06:09:35;;;;;;;4.47;4.07;;;;;;;21.91;33.96;95208.31;6234659;27;103871;-66
2022/12/01 06:12:38;;;;;;;4.93;4.27;;;;;;;21.90;33.54;95209.41;6224193;27;103946;-67
2022/12/01 06:15:41;;;;;;;4.43;4.03;;;;;;;21.92;33.85;95205.34;6235833;27;103764;-67
2022/12/01 06:18:44;;;;;;;5.80;4.00;;;;;;;21.95;33.95;95215.41;6236074;28;104082;-66
2022/12/01 06:21:47;;;;;;;6.30;4.50;;;;;;;21.97;33.66;95213.22;6235070;27;103946;-67
2022/12/01 06:24:52;;;;;;;4.73;4.33;;;;;;;22.00;33.97;95212.59;6224624;27;104777;-67
2022/12/01 06:27:56;;;;;;;4.40;4.00;;;;;;;22.01;33.89;95208.88;6233936;27;103877;-66
2022/12/01 06:30:59;;;;;;;3.77;3.37;;;;;;;22.01;34.17;95214.22;6235532;28;106873;-67
2022/12/01 06:34:05;;;;;;;4.30;3.90;;;;;;;22.06;34.28;95210.63;6230117;27;104136;-66
2022/12/01 06:37:08;;;;;;;4.33;3.93;;;;;;;22.08;33.59;95203.91;6231266;27;103990;-68
2022/12/01 06:40:13;;;;;;;4.60;4.20;;;;;;;22.11;33.81;95202.53;6235203;27;103940;-68
2022/12/01 06:43:16;;;;;;;4.90;4.50;;;;;;;22.14;34.02;95207.25;6234942;27;103779;-67
2022/12/01 06:46:19;;;;;;;4.80;4.23;;;;;;;22.17;33.80;95197.84;6224482;27;103732;-65
2022/12/01 06:49:23;;;;;;;4.33;3.90;;;;;;;22.21;33.93;95204.19;6234944;28;103722;-66
2022/12/01 06:52:26;;;;;;;5.27;4.50;;;;;;;22.28;33.12;95201.88;6234510;28;104935;-67
2022/12/01 06:55:30;;;;;;;4.73;4.30;;;;;;;22.26;33.33;95198.72;6235216;27;103943;-66
2022/12/01 06:58:34;;;;;;;5.43;3.80;;;;;;;22.27;33.50;95200.28;6222397;28;103723;-66
2022/12/01 07:01:38;;;;;;;4.10;3.40;;;;;;;22.28;33.01;95204.53;6234618;27;103744;-66
2022/12/01 07:04:41;;;;;;;3.93;3.43;;;;;;;22.28;32.92;95202.66;6234442;28;103291;-66
2022/12/01 07:07:44;;;;;;;4.73;4.33;;;;;;;22.28;33.37;95205.31;6230652;28;105839;-67
2022/12/01 07:10:56;;;;;;;4.23;3.83;;;;;;;22.29;32.85;95211.44;6228290;27;103681;-66
2022/12/01 07:13:59;;;;;;;3.37;3.07;;;;;;;22.28;33.39;95218.66;6235001;28;103549;-65
2022/12/01 07:17:02;;;;;;;3.43;3.13;;;;;;;22.26;32.81;95220.03;6235093;27;103808;-66
2022/12/01 07:20:08;;;;;;;3.37;3.00;;;;;;;22.21;32.96;95212.97;6223115;28;103681;-66
2022/12/01 07:23:12;;;;;;;3.20;2.90;;;;;;;22.26;32.67;95220.81;6233809;28;104085;-66
2022/12/01 07:26:17;;;;;;;3.37;3.07;;;;;;;22.26;32.96;95225.38;6234009;27;104064;-66
2022/12/01 07:29:20;;;;;;;4.60;3.53;;;;;;;22.22;33.22;95221.75;6233511;27;104166;-66
2022/12/01 07:32:24;;;;;;;3.17;2.97;;;;;;;22.22;32.82;95225.19;6223599;28;104219;-67
2022/12/01 07:35:27;;;;;;;2.90;2.40;;;;;;;22.23;32.62;95225.97;6234123;28;103530;-66
2022/12/01 07:38:30;;;;;;;4.70;2.90;;;;;;;22.23;33.17;95225.97;6234463;27;104091;-66
2022/12/01 07:41:36;;;;;;;2.63;2.43;;;;;;;22.23;32.72;95224.09;6232851;27;103751;-66
2022/12/01 07:44:39;;;;;;;2.90;2.70;;;;;;;22.21;33.13;95222.84;6226084;28;103565;-67
2022/12/01 07:47:43;;;;;;;3.27;2.87;;;;;;;22.22;32.35;95224.41;6235142;27;103877;-67
2022/12/01 07:50:46;;;;;;;4.20;3.07;;;;;;;22.23;32.42;95226.78;6234124;27;104159;-66
2022/12/01 07:53:51;;;;;;;2.70;2.50;;;;;;;22.23;32.52;95231.31;6223463;27;103794;-67
2022/12/01 07:56:55;;;;;;;4.10;2.70;;;;;;;22.22;32.83;95230.53;6233861;28;106609;-66
2022/12/01 07:59:58;;;;;;;2.77;2.40;;;;;;;22.20;32.81;95231.91;6233729;28;103842;-66
2022/12/01 08:03:01;;;;;;;2.63;2.43;;;;;;;22.21;32.32;95228.16;6235666;27;103866;-67
2022/12/01 08:06:06;;;;;;;3.37;2.20;;;;;;;22.20;32.47;95224.72;6226791;28;103805;-66
2022/12/01 08:09:09;;;;;;;2.80;2.30;;;;;;;22.20;32.41;95218.59;6238214;27;103792;-67
2022/12/01 08:12:13;;;;;;;2.10;1.90;;;;;;;22.21;32.81;95226.28;6237559;27;104062;-66
2022/12/01 08:15:17;;;;;;;2.63;1.87;;;;;;;22.18;32.48;95213.56;6238178;27;103915;-66
2022/12/01 08:18:20;;;;;;;2.23;2.00;;;;;;;22.21;32.47;95218.28;6227146;28;104822;-66
2022/12/01 08:21:24;;;;;;;2.60;2.00;;;;;;;22.20;32.65;95221.25;6238490;28;104828;-66
2022/12/01 08:24:27;;;;;;;2.50;2.30;;;;;;;22.09;32.77;95210.03;6236807;27;103955;-66
2022/12/01 08:27:31;;;;;;;2.90;2.70;;;;;;;22.10;33.33;95224.94;6232201;27;105101;-66
2022/12/01 08:30:34;;;;;;;2.50;2.30;;;;;;;22.07;33.53;95230.88;6231236;28;103762;-67
2022/12/01 08:33:37;;;;;;;3.13;2.53;;;;;;;22.02;33.74;95231.78;6236742;27;103813;-67
2022/12/01 08:36:40;;;;;;;2.10;2.00;;;;;;;22.03;33.98;95230.69;6237451;27;103742;-66
2022/12/01 08:39:43;;;;;;;2.73;2.53;;;;;;;22.02;33.48;95223.78;6227162;28;106649;-66
2022/12/01 08:42:48;;;;;;;2.90;2.60;;;;;;;22.03;33.47;95225.34;6237331;28;104977;-67
2022/12/01 08:45:51;;;;;;;2.73;2.33;;;;;;;22.01;33.73;95224.88;6237522;28;104999;-67
2022/12/01 08:48:56;;;;;;;3.03;2.37;;;;;;;22.01;33.65;95222.22;6236861;27;103948;-67
2022/12/01 08:51:59;;;;;;;1.97;1.80;;;;;;;22.01;33.69;95213.41;6227156;28;104158;-67
2022/12/01 08:55:04;;;;;;;2.37;2.17;;;;;;;21.96;33.81;95216.97;6236435;27;103826;-66
2022/12/01 08:58:08;;;;;;;2.60;2.20;;;;;;;22.00;33.83;95225.94;6237429;28;104043;-67
2022/12/01 09:01:13;;;;;;;2.80;2.17;;;;;;;22.01;33.39;95219.53;6233196;28;103778;-66
2022/12/01 09:04:18;;;;;;;2.57;2.37;;;;;;;22.01;33.56;95218.72;6230894;28;104713;-67
2022/12/01 09:07:21;;;;;;;2.40;1.93;;;;;;;22.01;33.74;95219.53;6236889;27;103750;-67
2022/12/01 09:10:28;;;;;;;2.53;2.10;;;;;;;21.98;33.59;95214.00;6236794;27;104810;-68
2022/12/01 09:13:34;;;;;;;2.00;1.80;;;;;;;22.01;33.56;95210.72;6226391;28;105563;-67
2022/12/01 09:16:37;;;;;;;2.53;2.10;;;;;;;22.01;33.89;95206.22;6237385;28;103427;-67
2022/12/01 09:19:40;;;;;;;2.30;2.10;;;;;;;22.02;33.70;95207.00;6236584;28;103722;-66
2022/12/01 09:22:43;;;;;;;2.70;2.00;;;;;;;21.97;33.49;95194.56;6236136;27;103812;-67
2022/12/01 09:25:49;;;;;;;2.30;1.90;;;;;;;22.04;33.83;95202.94;6225194;27;103799;-66
2022/12/01 09:28:56;;;;;;;2.23;2.03;;;;;;;22.03;33.52;95201.38;6238260;28;103454;-66
2022/12/01 09:32:00;;;;;;;1.90;1.80;;;;;;;22.05;34.21;95201.06;6235748;28;104313;-66
2022/12/01 09:35:03;;;;;;;2.70;2.50;;;;;;;22.03;34.22;95195.25;6235919;27;103937;-67
2022/12/01 09:38:06;;;;;;;3.70;3.40;;;;;;;22.00;34.23;95179.84;6225434;28;104002;-67
2022/12/01 09:41:17;;;;;;;4.33;3.70;;;;;;;22.02;34.11;95188.34;6235912;27;103884;-67
2022/12/01 09:44:32;;;;;;;4.00;3.73;;;;;;;22.06;34.07;95189.31;6236405;28;103994;-67
2022/12/01 09:47:37;;;;;;;3.80;3.50;;;;;;;22.15;33.78;95184.81;6225488;28;103771;-67
2022/12/01 09:50:40;;;;;;;3.67;3.47;;;;;;;22.21;34.18;95185.50;6236633;28;103255;-67
2022/12/01 09:53:44;;;;;;;3.23;3.00;;;;;;;22.22;33.91;95184.44;6235710;27;103822;-67
2022/12/01 09:56:52;;;;;;;3.00;2.80;;;;;;;22.22;33.84;95171.09;6235651;27;103821;-67
2022/12/01 09:59:58;;;;;;;3.03;2.83;;;;;;;22.29;33.62;95171.44;6224557;27;103902;-67
2022/12/01 10:03:07;;;;;;;2.53;2.33;;;;;;;22.29;33.41;95166.13;6234537;28;103716;-67
2022/12/01 10:06:15;;;;;;;2.67;2.27;;;;;;;22.30;33.20;95168.47;6235656;27;103737;-67
2022/12/01 10:09:40;;;;;;;2.70;2.43;;;;;;;22.27;33.20;95158.41;6230671;28;103633;-67
2022/12/01 10:12:46;;;;;;;2.37;2.17;;;;;;;22.30;33.19;95159.69;6231265;28;105881;-67
2022/12/01 10:15:57;;;;;;;2.70;2.50;;;;;;;22.31;33.27;95161.25;6235727;27;105161;-67
2022/12/01 10:19:08;;;;;;;2.03;1.93;;;;;;;22.31;33.00;95156.72;6235239;27;104057;-67
2022/12/01 10:22:35;;;;;;;2.20;2.00;;;;;;;22.33;33.27;95161.75;6225136;27;103899;-67
2022/12/01 10:25:47;;;;;;;2.10;2.00;;;;;;;22.31;32.87;95155.94;6184698;28;103468;-66
2022/12/01 10:29:02;;;;;;;2.03;1.87;;;;;;;22.35;32.76;95151.59;6186673;28;106611;-66
2022/12/01 10:32:17;;;;;;;2.10;1.93;;;;;;;22.29;32.94;95156.25;6181577;28;103555;-66
2022/12/01 10:35:22;;;;;;;2.03;1.60;;;;;;;22.30;33.29;95157.81;6179233;28;104244;-66
2022/12/01 10:38:29;;;;;;;1.80;1.70;;;;;;;22.04;33.35;95117.69;6185945;28;103875;-66
2022/12/01 10:41:35;;;;;;;1.80;1.47;;;;;;;22.23;33.62;95157.47;6185728;28;103573;-64
2022/12/01 10:44:39;;;;;;;2.30;2.10;;;;;;;22.21;33.05;95143.66;6175688;28;107727;-66
2022/12/01 10:48:14;;;;;;;1.80;1.70;;;;;;;22.25;33.61;95141.16;6185565;28;103848;-66
2022/12/01 10:51:19;;;;;;;2.00;1.63;;;;;;;22.26;33.40;95140.84;6185818;28;103791;-66
2022/12/01 10:54:25;;;;;;;1.73;1.53;;;;;;;22.27;33.06;95144.31;6185250;28;103971;-66
2022/12/01 10:57:36;;;;;;;2.07;1.80;;;;;;;22.29;33.22;95139.47;6176056;28;103887;-67
2022/12/01 11:00:43;;;;;;;1.60;1.50;;;;;;;22.26;33.12;95140.06;6186066;28;103826;-66
2022/12/01 11:04:07;;;;;;;1.70;1.60;;;;;;;22.24;32.95;95140.38;6186067;28;103675;-65
2022/12/01 11:07:16;;;;;;;2.57;1.60;;;;;;;22.26;33.25;95130.19;6174466;28;103774;-66
2022/12/01 11:10:23;;;;;;;1.63;1.53;;;;;;;22.28;33.27;95137.88;6185527;28;106775;-66
2022/12/01 11:13:29;;;;;;;1.50;1.40;;;;;;;22.28;33.28;95141.34;6185845;28;103863;-66
2022/12/01 11:16:39;;;;;;;1.50;1.40;;;;;;;22.26;33.31;95132.84;6185417;28;107997;-66
2022/12/01 11:19:43;;;;;;;1.27;1.17;;;;;;;22.23;33.26;95135.34;6175395;28;103691;-66
2022/12/01 11:22:47;;;;;;;1.43;1.33;;;;;;;22.27;33.23;95136.31;6192057;28;103905;-67
2022/12/01 11:25:59;;;;;;;1.83;1.40;;;;;;;22.26;32.78;95137.41;6234616;28;103516;-67
2022/12/01 11:29:04;;;;;;;1.40;1.03;;;;;;;22.25;32.69;95130.50;6230082;27;103909;-66
2022/12/01 11:32:17;;;;;;;1.40;1.30;;;;;;;22.21;32.64;95122.34;6229038;27;103896;-66
2022/12/01 11:35:25;;;;;;;1.57;1.47;;;;;;;22.21;33.09;95119.66;6234307;27;103718;-66
2022/12/01 11:38:33;;;;;;;1.37;1.27;;;;;;;22.27;32.80;95129.09;6238247;27;103771;-67
2022/12/01 11:41:41;;;;;;;1.63;1.50;;;;;;;22.28;32.55;95128.00;6228386;27;104021;-66
2022/12/01 11:44:49;;;;;;;1.23;1.03;;;;;;;22.27;32.53;95128.31;6239157;27;103987;-66
2022/12/01 11:48:10;;;;;;;1.30;1.10;;;;;;;22.27;32.55;95126.44;6238628;28;103909;-66
2022/12/01 11:51:31;;;;;;;1.33;1.23;;;;;;;22.25;32.81;95122.50;6238620;27;103667;-66
2022/12/01 11:54:38;;;;;;;1.30;1.10;;;;;;;22.26;32.87;95132.06;6231617;28;103775;-66
2022/12/01 11:57:44;;;;;;;1.30;1.20;;;;;;;22.28;32.57;95130.66;6239922;28;103590;-66
2022/12/01 12:00:55;;;;;;;1.23;1.13;;;;;;;22.28;32.47;95129.88;6239089;27;103961;-67
2022/12/01 12:04:17;;;;;;;1.20;1.10;;;;;;;22.20;32.47;95122.63;6227154;28;104083;-66
2022/12/01 12:07:31;;;;;;;0.70;0.70;;;;;;;22.28;32.63;95127.22;6238187;27;103938;-67
2022/12/01 12:10:46;;;;;;;1.17;1.07;;;;;;;22.15;32.96;95112.06;6237656;28;104145;-66
2022/12/01 12:14:07;;;;;;;0.83;0.83;;;;;;;22.29;32.62;95136.78;6238203;27;103495;-67
2022/12/01 12:17:30;;;;;;;1.00;0.90;;;;;;;22.24;32.37;95121.72;6228437;28;103702;-66
2022/12/01 12:20:46;;;;;;;0.80;0.80;;;;;;;22.26;32.80;95126.75;6237955;28;103620;-66
2022/12/01 12:24:22;;;;;;;1.53;0.90;;;;;;;22.25;32.33;95128.63;6236663;28;103995;-66
2022/12/01 12:27:33;;;;;;;0.90;0.83;;;;;;;22.24;32.70;95126.25;6226702;27;103957;-66
2022/12/01 12:30:46;;;;;;;1.70;1.17;;;;;;;22.25;32.34;95130.50;6237716;28;103853;-66
2022/12/01 12:34:27;;;;;;;1.07;0.97;;;;;;;22.23;32.93;95130.81;6237861;27;103807;-66
2022/12/01 12:37:41;;;;;;;1.33;0.93;;;;;;;22.23;32.25;95128.13;6226361;28;103838;-66
2022/12/01 12:40:54;;;;;;;0.80;0.80;;;;;;;22.21;32.76;95122.34;6236757;27;103759;-66
2022/12/01 12:44:10;;;;;;;0.90;0.80;;;;;;;22.17;32.88;95126.66;6237360;28;104051;-66
2022/12/01 12:47:38;;;;;;;0.73;0.73;;;;;;;22.23;32.30;95130.03;6236794;27;103910;-66
2022/12/01 12:50:47;;;;;;;0.93;0.83;;;;;;;22.21;32.51;95138.31;6226767;28;105218;-66
2022/12/01 12:53:56;;;;;;;0.77;0.77;;;;;;;22.22;32.64;95134.56;6237479;27;104043;-67
2022/12/01 12:57:06;;;;;;;0.80;0.80;;;;;;;22.22;32.17;95133.78;6237726;28;103470;-66
2022/12/01 13:00:15;;;;;;;0.83;0.83;;;;;;;22.14;32.87;95121.94;6232063;27;103864;-66
2022/12/01 13:03:24;;;;;;;1.17;0.90;;;;;;;22.21;32.36;95130.31;6234671;28;103692;-66
2022/12/01 13:06:41;;;;;;;0.87;0.70;;;;;;;22.16;32.40;95133.09;6237518;28;104002;-66
2022/12/01 13:09:50;;;;;;;0.90;0.90;;;;;;;22.22;32.76;95133.78;6237477;27;104506;-66
2022/12/01 13:13:00;;;;;;;1.20;0.90;;;;;;;22.21;32.20;95138.31;6225769;27;104049;-66
2022/12/01 13:16:06;;;;;;;1.27;0.97;;;;;;;22.22;32.58;95142.56;6236201;28;104104;-66
2022/12/01 13:19:14;;;;;;;1.00;0.90;;;;;;;22.22;32.36;95137.22;6236660;28;103722;-66
2022/12/01 13:22:29;;;;;;;0.90;0.70;;;;;;;22.18;32.54;95135.44;6235585;27;103876;-66
2022/12/01 13:25:38;;;;;;;1.00;0.90;;;;;;;22.19;32.35;95135.19;6230780;27;104593;-66
2022/12/01 13:28:47;;;;;;;1.00;0.90;;;;;;;22.22;32.79;95141.78;6236557;27;103868;-66
2022/12/01 13:31:52;;;;;;;1.03;0.77;;;;;;;22.22;32.41;95142.56;6236190;27;103767;-66
2022/12/01 13:34:56;;;;;;;0.93;0.80;;;;;;;22.22;32.32;95139.09;6226305;27;103761;-66
2022/12/01 13:38:23;;;;;;;0.93;0.90;;;;;;;22.22;32.66;95139.91;6236211;27;104918;-66
2022/12/01 13:41:29;;;;;;;0.73;0.60;;;;;;;22.24;32.28;95140.38;6237159;28;104117;-66
2022/12/01 13:44:41;;;;;;;1.00;0.90;;;;;;;22.24;32.62;95147.59;6235908;27;103931;-66
2022/12/01 13:47:51;;;;;;;0.60;0.60;;;;;;;22.24;32.11;95142.25;6226407;28;104044;-66
2022/12/01 13:50:59;;;;;;;0.57;0.57;;;;;;;22.26;32.22;95148.06;6236395;27;103954;-66
2022/12/01 13:54:05;;;;;;;0.77;0.57;;;;;;;22.24;32.20;95147.59;6236641;28;103732;-67
2022/12/01 13:57:13;;;;;;;0.80;0.70;;;;;;;22.25;32.36;95144.63;6227217;28;103437;-67
2022/12/01 14:00:24;;;;;;;1.10;1.00;;;;;;;22.17;32.57;95133.88;6235435;27;104294;-67
2022/12/01 14:03:40;;;;;;;1.40;0.80;;;;;;;22.24;32.60;95143.03;6236029;27;103922;-67
2022/12/01 14:06:48;;;;;;;0.97;0.80;;;;;;;22.24;32.65;95142.25;6235711;27;105001;-67
2022/12/01 14:09:53;;;;;;;1.20;0.70;;;;;;;22.25;32.51;95144.63;6224865;28;103934;-67
2022/12/01 14:13:01;;;;;;;1.33;0.90;;;;;;;22.28;32.35;95140.56;6235664;27;103941;-67
2022/12/01 14:16:06;;;;;;;0.60;0.60;;;;;;;22.28;32.18;95137.88;6235230;27;103978;-67
2022/12/01 14:19:33;;;;;;;2.23;0.70;;;;;;;22.24;32.25;95137.72;6231652;27;103700;-66
2022/12/01 14:22:39;;;;;;;1.00;0.60;;;;;;;22.26;32.10;95143.53;6229680;28;106712;-66
2022/12/01 14:25:55;;;;;;;1.50;0.60;;;;;;;22.24;32.51;95143.03;6235276;27;103884;-67
2022/12/01 14:29:23;;;;;;;0.97;0.90;;;;;;;22.23;32.19;95138.81;6235045;27;103928;-67
2022/12/01 14:32:28;;;;;;;0.80;0.70;;;;;;;22.24;32.04;95142.25;6225087;27;103914;-67